createdAt,value
2023-01-09T00:00:05.243Z,-8.18
2023-01-09T00:02:52.943Z,-8.11
2023-01-09T00:05:40.518Z,-8.04
2023-01-09T00:08:28.051Z,-8.00
2023-01-09T00:11:15.678Z,-7.93
2023-01-09T00:14:03.873Z,-7.90
2023-01-09T00:16:51.436Z,-7.88
2023-01-09T00:19:39.031Z,-7.84
2023-01-09T00:22:26.614Z,-7.81
2023-01-09T00:25:14.154Z,-7.79
2023-01-09T00:28:01.666Z,-7.74
2023-01-09T00:30:56.476Z,-7.70
2023-01-09T00:33:55.453Z,-7.66
2023-01-09T00:36:43.018Z,-7.61
2023-01-09T00:39:30.592Z,-7.58
2023-01-09T00:42:20.714Z,-7.56
2023-01-09T00:45:11.215Z,-7.53
2023-01-09T00:48:06.899Z,-7.53
2023-01-09T00:50:55.452Z,-7.52
2023-01-09T00:53:42.999Z,-7.51
2023-01-09T00:56:30.666Z,-7.51
2023-01-09T00:59:18.196Z,-7.47
2023-01-09T01:02:05.897Z,-7.44
2023-01-09T01:05:12.094Z,-7.41
2023-01-09T01:07:59.696Z,-7.37
2023-01-09T01:10:47.641Z,-7.35
2023-01-09T01:13:35.231Z,-7.33
2023-01-09T01:16:22.897Z,-7.30
2023-01-09T01:19:10.447Z,-7.28
2023-01-09T01:21:57.998Z,-7.25
2023-01-09T01:24:45.530Z,-7.24
2023-01-09T01:27:33.017Z,-7.23
2023-01-09T01:30:20.671Z,-7.22
2023-01-09T01:33:08.538Z,-7.18
2023-01-09T01:36:07.223Z,-7.15
2023-01-09T01:38:54.797Z,-7.12
2023-01-09T01:41:42.423Z,-7.09
2023-01-09T01:45:07.353Z,-7.07
2023-01-09T01:48:07.479Z,-7.04
2023-01-09T01:51:00.302Z,-7.03
2023-01-09T01:53:54.028Z,-7.01
2023-01-09T01:56:56.871Z,-7.00
2023-01-09T01:59:50.120Z,-6.99
2023-01-09T02:02:37.836Z,-6.99
2023-01-09T02:05:25.467Z,-6.95
2023-01-09T02:08:13.116Z,-6.88
2023-01-09T02:11:01.001Z,-6.86
2023-01-09T02:13:48.520Z,-6.85
2023-01-09T02:16:59.599Z,-6.83
2023-01-09T02:20:24.299Z,-6.81
2023-01-09T02:23:27.067Z,-6.77
2023-01-09T02:26:14.462Z,-6.75
2023-01-09T02:29:30.113Z,-6.74
2023-01-09T02:32:37.822Z,-6.73
2023-01-09T02:35:37.579Z,-6.69
2023-01-09T02:38:43.244Z,-6.65
2023-01-09T02:41:43.605Z,-6.58
2023-01-09T02:44:32.526Z,-6.54
2023-01-09T02:47:20.687Z,-6.52
2023-01-09T02:50:11.861Z,-6.49
2023-01-09T02:52:59.333Z,-6.46
2023-01-09T02:56:20.255Z,-6.44
2023-01-09T02:59:17.463Z,-6.41
2023-01-09T03:02:34.563Z,-6.39
2023-01-09T03:05:25.847Z,-6.38
2023-01-09T03:08:15.979Z,-6.37
2023-01-09T03:11:06.613Z,-6.36
2023-01-09T03:13:55.736Z,-6.34
2023-01-09T03:16:44.907Z,-6.31
2023-01-09T03:19:32.529Z,-6.27
2023-01-09T03:22:20.425Z,-6.24
2023-01-09T03:25:08.342Z,-6.21
2023-01-09T03:28:03.767Z,-6.21
2023-01-09T03:30:51.318Z,-6.20
2023-01-09T03:33:38.970Z,-6.18
2023-01-09T03:36:26.531Z,-6.19
2023-01-09T03:39:14.022Z,-6.19
2023-01-09T03:42:01.780Z,-6.18
2023-01-09T03:44:50.904Z,-6.16
2023-01-09T03:47:38.449Z,-6.16
2023-01-09T03:50:26.002Z,-6.16
2023-01-09T03:53:13.895Z,-6.15
2023-01-09T03:56:01.443Z,-6.14
2023-01-09T03:58:50.278Z,-6.13
2023-01-09T04:01:37.974Z,-6.13
2023-01-09T04:04:25.580Z,-6.13
2023-01-09T04:07:13.185Z,-6.13
2023-01-09T04:10:00.743Z,-6.09
2023-01-09T04:12:48.265Z,-6.08
2023-01-09T04:15:35.828Z,-6.07
2023-01-09T04:18:23.925Z,-6.03
2023-01-09T04:21:11.545Z,-6.02
2023-01-09T04:23:59.067Z,-6.01
2023-01-09T04:26:46.595Z,-6.03
2023-01-09T04:29:34.150Z,-6.03
2023-01-09T04:32:21.714Z,-6.01
2023-01-09T04:35:09.432Z,-5.99
2023-01-09T04:37:56.971Z,-5.98
2023-01-09T04:40:44.542Z,-5.96
2023-01-09T04:43:32.089Z,-5.96
2023-01-09T04:46:19.615Z,-5.95
2023-01-09T04:49:07.184Z,-5.89
2023-01-09T04:51:54.765Z,-5.88
2023-01-09T04:54:42.388Z,-5.87
2023-01-09T04:57:29.948Z,-5.88
2023-01-09T05:00:17.704Z,-5.88
2023-01-09T05:03:05.294Z,-5.87
2023-01-09T05:05:52.850Z,-5.83
2023-01-09T05:08:40.402Z,-5.79
2023-01-09T05:11:28.510Z,-5.78
2023-01-09T05:14:16.107Z,-5.76
2023-01-09T05:17:03.764Z,-5.77
2023-01-09T05:19:51.356Z,-5.76
2023-01-09T05:22:38.947Z,-5.74
2023-01-09T05:25:26.496Z,-5.73
2023-01-09T05:28:14.013Z,-5.70
2023-01-09T05:31:01.573Z,-5.70
2023-01-09T05:33:49.150Z,-5.69
2023-01-09T05:36:36.688Z,-5.68
2023-01-09T05:39:24.402Z,-5.66
2023-01-09T05:42:11.954Z,-5.63
2023-01-09T05:44:59.561Z,-5.59
2023-01-09T05:47:47.131Z,-5.58
2023-01-09T05:50:34.639Z,-5.58
2023-01-09T05:53:22.133Z,-5.57
2023-01-09T05:56:11.449Z,-5.54
2023-01-09T05:58:59.424Z,-5.52
2023-01-09T06:01:47.034Z,-5.51
2023-01-09T06:04:34.769Z,-5.51
2023-01-09T06:07:23.510Z,-5.52
2023-01-09T06:10:11.977Z,-5.53
2023-01-09T06:12:59.553Z,-5.51
2023-01-09T06:15:47.877Z,-5.49
2023-01-09T06:18:35.534Z,-5.47
2023-01-09T06:21:23.060Z,-5.46
2023-01-09T06:24:10.619Z,-5.45
2023-01-09T06:26:58.203Z,-5.45
2023-01-09T06:29:45.796Z,-5.45
2023-01-09T06:32:33.297Z,-5.41
2023-01-09T06:35:22.296Z,-5.41
2023-01-09T06:38:09.953Z,-5.41
2023-01-09T06:40:57.494Z,-5.40
2023-01-09T06:43:45.165Z,-5.38
2023-01-09T06:46:32.810Z,-5.35
2023-01-09T06:49:23.609Z,-5.36
2023-01-09T06:52:11.152Z,-5.36
2023-01-09T06:54:58.692Z,-5.39
2023-01-09T06:57:46.281Z,-5.37
2023-01-09T07:00:33.898Z,-5.33
2023-01-09T07:03:22.592Z,-5.29
2023-01-09T07:06:10.186Z,-5.29
2023-01-09T07:08:57.825Z,-5.27
2023-01-09T07:11:45.433Z,-5.24
2023-01-09T07:14:32.985Z,-5.21
2023-01-09T07:17:20.544Z,-5.20
2023-01-09T07:20:08.875Z,-5.19
2023-01-09T07:22:57.040Z,-5.19
2023-01-09T07:25:44.541Z,-5.13
2023-01-09T07:28:32.070Z,-5.08
2023-01-09T07:31:19.669Z,-5.05
2023-01-09T07:34:07.204Z,-5.04
2023-01-09T07:36:54.776Z,-5.02
2023-01-09T07:39:42.362Z,-4.98
2023-01-09T07:42:29.958Z,-4.92
2023-01-09T07:45:17.530Z,-4.88
2023-01-09T07:48:05.281Z,-4.86
2023-01-09T07:50:52.823Z,-4.83
2023-01-09T07:53:40.394Z,-4.78
2023-01-09T07:56:27.982Z,-4.74
2023-01-09T07:59:15.580Z,-4.70
2023-01-09T10:10:05.745Z,-4.62
2023-01-09T10:13:23.208Z,-4.54
2023-01-09T10:16:23.043Z,-4.46
2023-01-09T10:19:20.428Z,-4.40
2023-01-09T10:22:22.382Z,-4.34
2023-01-09T10:25:27.436Z,-4.26
2023-01-09T10:28:33.299Z,-4.18
2023-01-09T10:31:36.075Z,-4.11
2023-01-09T10:34:57.113Z,-4.04
2023-01-09T10:37:45.453Z,-3.98
2023-01-09T10:40:39.665Z,-3.92
2023-01-09T10:43:42.217Z,-3.88
2023-01-09T10:46:42.147Z,-3.83
2023-01-09T10:49:29.681Z,-3.80
2023-01-09T10:52:20.603Z,-3.76
2023-01-09T10:55:20.163Z,-3.74
2023-01-09T10:58:16.254Z,-3.72
2023-01-09T11:01:04.641Z,-3.69
2023-01-09T11:03:52.198Z,-3.66
2023-01-09T11:06:47.914Z,-3.64
2023-01-09T11:10:04.673Z,-3.62
2023-01-09T11:12:52.100Z,-3.60
2023-01-09T11:15:39.653Z,-3.58
2023-01-09T11:18:27.127Z,-3.55
2023-01-09T11:21:38.065Z,-3.53
2023-01-09T11:24:28.871Z,-3.52
2023-01-09T11:27:23.407Z,-3.49
2023-01-09T11:30:27.765Z,-3.45
2023-01-09T11:33:16.183Z,-3.42
2023-01-09T11:36:10.694Z,-3.37
2023-01-09T11:38:59.190Z,-3.33
2023-01-09T11:41:48.916Z,-3.31
2023-01-09T11:44:37.002Z,-3.28
2023-01-09T11:47:34.518Z,-3.26
2023-01-09T11:50:27.286Z,-3.24
2023-01-09T11:53:16.116Z,-3.23
2023-01-09T11:56:03.754Z,-3.22
2023-01-09T11:58:51.429Z,-3.20
2023-01-09T12:01:55.701Z,-3.19
2023-01-09T12:04:47.699Z,-3.17
2023-01-09T12:07:53.404Z,-3.14
2023-01-09T12:10:59.496Z,-3.13
2023-01-09T12:13:53.547Z,-3.10
2023-01-09T12:17:08.917Z,-3.08
2023-01-09T12:20:12.525Z,-3.05
2023-01-09T12:23:12.770Z,-2.99
2023-01-09T12:26:33.221Z,-2.96
2023-01-09T12:29:29.753Z,-2.97
2023-01-09T12:32:20.220Z,-2.96
2023-01-09T12:35:17.624Z,-2.94
2023-01-09T12:38:14.339Z,-2.92
2023-01-09T12:41:11.025Z,-2.90
2023-01-09T12:44:09.007Z,-2.87
2023-01-09T12:47:31.929Z,-2.82
2023-01-09T12:50:40.912Z,-2.75
2023-01-09T12:53:34.750Z,-2.78
2023-01-09T12:56:25.247Z,-2.76
2023-01-09T12:59:22.053Z,-2.70
2023-01-09T13:02:28.547Z,-2.66
2023-01-09T13:05:24.740Z,-2.62
2023-01-09T13:08:15.772Z,-2.60
2023-01-09T13:11:19.026Z,-2.59
2023-01-09T13:14:20.336Z,-2.54
2023-01-09T13:17:08.582Z,-2.49
2023-01-09T13:19:56.854Z,-2.47
2023-01-09T13:22:49.928Z,-2.44
2023-01-09T13:25:41.769Z,-2.40
2023-01-09T13:28:53.911Z,-2.35
2023-01-09T13:32:18.926Z,-2.30
2023-01-09T13:35:14.516Z,-2.28
2023-01-09T13:38:01.937Z,-2.25
2023-01-09T13:41:39.726Z,-2.25
2023-01-09T13:44:28.829Z,-2.24
2023-01-09T13:47:21.479Z,-2.20
2023-01-09T13:50:11.816Z,-2.18
2023-01-09T13:53:18.000Z,-2.17
2023-01-09T13:56:06.305Z,-2.17
2023-01-09T13:58:58.656Z,-2.15
2023-01-09T14:01:47.652Z,-2.13
2023-01-09T14:04:42.353Z,-2.10
2023-01-09T14:07:33.904Z,-2.10
2023-01-09T14:10:57.669Z,-2.10
2023-01-09T14:13:45.679Z,-2.09
2023-01-09T14:16:33.331Z,-2.08
2023-01-09T14:19:37.790Z,-2.03
2023-01-09T14:22:30.593Z,-2.01
2023-01-09T14:25:20.146Z,-2.06
2023-01-09T14:28:26.008Z,-2.06
2023-01-09T14:31:32.515Z,-2.04
2023-01-09T14:34:35.992Z,-2.04
2023-01-09T14:37:23.553Z,-2.05
2023-01-09T14:40:23.768Z,-2.04
2023-01-09T14:43:15.588Z,-2.00
2023-01-09T14:46:05.010Z,-1.98
2023-01-09T14:49:30.145Z,-1.96
2023-01-09T14:52:29.404Z,-1.95
2023-01-09T14:55:22.329Z,-1.96
2023-01-09T14:58:19.703Z,-1.96
2023-01-09T15:01:08.269Z,-1.97
2023-01-09T15:03:59.572Z,-1.93
2023-01-09T15:06:47.046Z,-1.92
2023-01-09T15:09:44.428Z,-1.92
2023-01-09T15:12:32.222Z,-1.90
2023-01-09T15:15:20.313Z,-1.89
2023-01-09T15:18:07.921Z,-1.88
2023-01-09T15:20:59.113Z,-1.85
2023-01-09T15:23:46.824Z,-1.80
2023-01-09T15:26:34.266Z,-1.78
2023-01-09T15:29:22.877Z,-1.77
2023-01-09T15:32:17.437Z,-1.77
2023-01-09T15:35:05.118Z,-1.77
2023-01-09T15:37:52.769Z,-1.76
2023-01-09T15:40:40.325Z,-1.74
2023-01-09T15:43:28.523Z,-1.73
2023-01-09T15:46:16.342Z,-1.69
2023-01-09T15:49:03.785Z,-1.67
2023-01-09T15:51:51.176Z,-1.65
2023-01-09T15:54:39.118Z,-1.64
2023-01-09T15:57:26.685Z,-1.63
2023-01-09T19:07:31.499Z,-3.80
2023-01-09T19:10:19.024Z,-3.81
2023-01-09T19:13:06.509Z,-3.81
2023-01-09T19:15:57.522Z,-3.81
2023-01-09T19:18:45.474Z,-3.80
2023-01-09T19:21:32.993Z,-3.80
2023-01-09T19:24:21.238Z,-3.78
2023-01-09T19:27:08.764Z,-3.74
2023-01-09T19:29:56.216Z,-3.70
2023-01-09T19:32:43.767Z,-3.67
2023-01-09T19:35:32.343Z,-3.62
2023-01-09T19:38:22.480Z,-3.62
2023-01-09T19:41:19.899Z,-3.62
2023-01-09T19:44:07.521Z,-3.61
2023-01-09T19:46:55.017Z,-3.62
2023-01-09T19:49:42.436Z,-3.63
2023-01-09T19:52:29.898Z,-3.64
2023-01-09T19:55:17.355Z,-3.66
2023-01-09T19:58:05.259Z,-3.65
2023-01-09T20:00:52.720Z,-3.61
2023-01-09T20:03:41.158Z,-3.57
2023-01-09T20:06:28.725Z,-3.55
2023-01-09T20:09:17.836Z,-3.53
2023-01-09T20:12:05.592Z,-3.50
2023-01-09T20:14:53.109Z,-3.47
2023-01-09T20:17:41.397Z,-3.44
2023-01-09T20:20:28.972Z,-3.40
2023-01-09T20:23:21.358Z,-3.35
2023-01-09T20:26:08.767Z,-3.31
2023-01-09T20:28:56.460Z,-3.29
2023-01-09T20:31:44.160Z,-3.27
2023-01-09T20:34:31.754Z,-3.25
2023-01-09T20:37:19.205Z,-3.21
2023-01-09T20:40:07.010Z,-3.18
2023-01-09T20:42:54.601Z,-3.16
2023-01-09T20:45:42.163Z,-3.14
2023-01-09T20:48:30.034Z,-3.11
2023-01-09T20:51:17.536Z,-3.10
2023-01-09T20:54:05.085Z,-3.08
2023-01-09T20:56:53.644Z,-3.06
2023-01-09T20:59:41.066Z,-3.02
2023-01-09T21:02:28.460Z,-3.00
2023-01-09T21:05:16.051Z,-2.99
2023-01-09T21:08:04.250Z,-2.96
2023-01-09T21:11:00.852Z,-2.92
2023-01-09T21:13:48.333Z,-2.89
2023-01-09T21:16:35.794Z,-2.86
2023-01-09T21:19:23.283Z,-2.84
2023-01-09T21:22:10.776Z,-2.81
2023-01-09T21:24:58.239Z,-2.80
2023-01-09T21:27:50.946Z,-2.78
2023-01-09T21:30:38.242Z,-2.78
2023-01-09T21:33:25.629Z,-2.76
2023-01-09T21:36:13.407Z,-2.76
2023-01-09T21:39:00.836Z,-2.75
2023-01-09T21:42:06.776Z,-2.77
2023-01-09T21:45:12.782Z,-2.78
2023-01-09T21:48:03.328Z,-2.78
2023-01-09T21:50:50.787Z,-2.78
2023-01-09T21:53:38.282Z,-2.77
2023-01-09T21:56:25.677Z,-2.77
2023-01-09T21:59:13.456Z,-2.77
2023-01-09T22:02:00.902Z,-2.76
2023-01-09T22:04:49.179Z,-2.76
2023-01-09T22:07:36.745Z,-2.77
2023-01-09T22:10:24.164Z,-2.78
2023-01-09T22:13:16.182Z,-2.78
2023-01-09T22:16:05.082Z,-2.78
2023-01-09T22:18:55.972Z,-2.79
2023-01-09T22:21:43.459Z,-2.80
2023-01-09T22:24:30.881Z,-2.82
2023-01-09T22:27:18.326Z,-2.85
2023-01-09T22:30:06.372Z,-2.86
2023-01-09T22:32:53.759Z,-2.87
2023-01-09T22:35:41.861Z,-2.89
2023-01-09T22:38:29.262Z,-2.90
2023-01-09T22:41:16.675Z,-2.91
2023-01-09T22:44:04.263Z,-2.93
2023-01-09T22:46:51.715Z,-2.94
2023-01-09T22:49:52.370Z,-2.96
2023-01-09T22:52:40.378Z,-2.99
2023-01-09T22:55:27.817Z,-3.02
2023-01-09T22:58:15.396Z,-3.04
2023-01-09T23:01:03.136Z,-3.06
2023-01-09T23:03:50.576Z,-3.08
2023-01-09T23:06:38.024Z,-3.10
2023-01-09T23:09:26.641Z,-3.12
2023-01-09T23:12:14.015Z,-3.16
2023-01-09T23:15:01.517Z,-3.17
2023-01-09T23:17:48.885Z,-3.18
2023-01-09T23:20:36.336Z,-3.19
2023-01-09T23:23:24.480Z,-3.19
2023-01-09T23:26:11.866Z,-3.18
2023-01-09T23:28:59.309Z,-3.18
2023-01-09T23:31:46.811Z,-3.18
2023-01-09T23:34:34.306Z,-3.17
2023-01-09T23:37:21.737Z,-3.16
2023-01-09T23:40:10.653Z,-3.16
2023-01-09T23:43:10.386Z,-3.17
2023-01-09T23:45:57.880Z,-3.18
2023-01-09T23:48:45.980Z,-3.19
2023-01-09T23:51:34.441Z,-3.19
2023-01-09T23:54:21.875Z,-3.20
2023-01-09T23:57:09.371Z,-3.22
2023-01-09T23:59:56.783Z,-3.22
